Aviation Digital Data Service (ADDS)

Output produced by METARs form (1925 UTC 16 September 2014)
found at http://aviationweather.gov/adds/metars/
 
KCAR 161720Z 1618/1718 20006KT P6SM VCSH OVC009 
     TEMPO 1618/1620 -SHRA SCT009 BKN025 
     FM162000 23007KT P6SM VCSH BKN030 
     FM170000 24006KT P6SM SCT045 BKN200 
     FM170500 VRB02KT 5SM BR BKN200 
     FM171000 26005KT P6SM BKN100